createdAt,value
2023-03-29T00:01:52.245Z,5.50
2023-03-29T00:05:34.947Z,4.50
2023-03-29T00:09:35.271Z,6.00
2023-03-29T00:12:55.382Z,7.30
2023-03-29T00:16:23.161Z,7.40
2023-03-29T00:20:03.270Z,5.80
2023-03-29T00:23:54.054Z,4.20
2023-03-29T00:27:37.441Z,4.80
2023-03-29T00:31:19.752Z,4.20
2023-03-29T00:34:52.126Z,4.70
2023-03-29T00:38:33.958Z,6.70
2023-03-29T00:42:14.929Z,5.50
2023-03-29T00:45:45.065Z,4.30
2023-03-29T00:49:51.709Z,6.40
2023-03-29T00:53:12.634Z,6.80
2023-03-29T00:56:51.555Z,5.90
2023-03-29T01:00:37.182Z,5.80
2023-03-29T01:15:12.976Z,7.90
2023-03-29T01:17:55.762Z,12.40
2023-03-29T01:32:52.821Z,7.50
2023-03-29T01:46:31.720Z,6.40
2023-03-29T02:00:24.222Z,7.60
2023-03-29T02:03:23.501Z,8.80
2023-03-29T02:17:19.836Z,7.60
2023-03-29T02:31:28.778Z,7.10
2023-03-29T02:48:46.548Z,8.30
2023-03-29T03:03:03.248Z,8.90
2023-03-29T03:34:39.999Z,6.20
2023-03-29T04:04:14.641Z,7.30
2023-03-29T04:07:24.797Z,9.20
2023-03-29T04:10:42.011Z,6.20
2023-03-29T04:14:37.811Z,7.60
2023-03-29T04:28:55.235Z,9.00
2023-03-29T04:31:32.333Z,8.80
2023-03-29T04:35:12.483Z,7.50
2023-03-29T04:43:46.798Z,10.00
2023-03-29T04:47:37.396Z,9.80
2023-03-29T04:51:22.515Z,10.30
2023-03-29T05:06:14.316Z,9.00
2023-03-29T05:08:55.624Z,7.50
2023-03-29T05:24:19.776Z,8.70
2023-03-29T05:51:12.560Z,10.70
2023-03-29T05:54:02.172Z,13.20
2023-03-29T05:57:38.919Z,115.50
2023-03-29T06:00:24.261Z,108.30
2023-03-29T06:02:52.972Z,35.20
2023-03-29T06:05:20.942Z,73.90
2023-03-29T06:07:49.262Z,36.10
2023-03-29T06:10:18.098Z,13.90
2023-03-29T06:12:47.280Z,18.80
2023-03-29T06:15:16.382Z,17.90
2023-03-29T06:17:47.477Z,32.30
2023-03-29T06:20:15.530Z,11.50
2023-03-29T06:22:47.862Z,15.90
2023-03-29T06:25:17.789Z,14.90
2023-03-29T06:27:49.603Z,10.90
2023-03-29T06:30:20.474Z,18.70
2023-03-29T06:32:52.163Z,10.40
2023-03-29T06:35:20.745Z,10.20
2023-03-29T06:37:53.751Z,10.10
2023-03-29T06:40:21.687Z,11.50
2023-03-29T06:42:51.048Z,8.60
2023-03-29T06:45:32.819Z,10.50
2023-03-29T06:48:02.162Z,10.50
2023-03-29T06:50:31.445Z,10.90
2023-03-29T06:57:05.828Z,9.70
2023-03-29T06:59:56.928Z,8.60
2023-03-29T07:02:24.914Z,9.40
2023-03-29T07:04:52.845Z,8.40
2023-03-29T07:07:27.878Z,7.00
2023-03-29T07:09:55.868Z,8.60
2023-03-29T07:12:24.184Z,9.60
2023-03-29T07:27:03.454Z,8.70
2023-03-29T07:29:31.699Z,6.70
2023-03-29T07:31:58.510Z,8.90
2023-03-29T07:34:25.100Z,8.30
2023-03-29T07:36:52.014Z,10.20
2023-03-29T07:39:18.727Z,7.20
2023-03-29T07:41:45.404Z,9.20
2023-03-29T07:44:29.840Z,8.50
2023-03-29T07:47:15.099Z,9.00
2023-03-29T07:49:41.722Z,6.10
2023-03-29T07:52:08.521Z,9.40
2023-03-29T07:54:35.069Z,8.20
2023-03-29T07:57:01.849Z,8.90
2023-03-29T07:59:28.436Z,7.10
2023-03-29T08:01:55.005Z,7.30
2023-03-29T08:04:22.580Z,9.00
2023-03-29T08:06:49.370Z,6.30
2023-03-29T08:11:41.048Z,7.10
2023-03-29T08:15:20.448Z,4.60
2023-03-29T08:19:20.806Z,5.60
2023-03-29T08:33:29.714Z,7.50
2023-03-29T08:36:00.198Z,6.50
2023-03-29T08:39:03.272Z,7.10
2023-03-29T08:42:03.821Z,8.40
2023-03-29T08:44:35.167Z,6.80
2023-03-29T08:49:17.823Z,5.70
2023-03-29T08:52:00.194Z,6.20
2023-03-29T08:54:40.768Z,7.00
2023-03-29T08:57:17.949Z,4.80
2023-03-29T08:59:48.909Z,8.20
2023-03-29T09:03:10.952Z,5.40
2023-03-29T09:06:40.995Z,5.40
2023-03-29T09:09:59.706Z,3.80
2023-03-29T09:14:28.478Z,5.40
2023-03-29T09:17:13.824Z,5.20
2023-03-29T09:19:58.331Z,5.80
2023-03-29T09:26:55.646Z,5.60
2023-03-29T09:30:17.647Z,4.90
2023-03-29T09:47:22.734Z,2.60
2023-03-29T09:51:07.939Z,4.00
2023-03-29T09:54:37.400Z,5.80
2023-03-29T09:58:20.043Z,3.20
2023-03-29T10:27:06.626Z,2.50
2023-03-29T11:27:49.398Z,3.30
2023-03-29T12:04:23.145Z,2.80
2023-03-29T12:21:46.728Z,4.00
2023-03-29T12:36:16.031Z,3.20
2023-03-29T12:39:05.689Z,4.30
2023-03-29T12:41:56.427Z,3.50
2023-03-29T12:44:24.030Z,3.50
2023-03-29T12:46:54.518Z,8.20
2023-03-29T12:49:43.405Z,5.20
2023-03-29T12:53:04.798Z,4.00
2023-03-29T12:55:44.257Z,4.40
2023-03-29T13:29:38.451Z,3.70
2023-03-29T13:33:03.869Z,4.40
2023-03-29T13:40:19.241Z,6.30
2023-03-29T14:03:50.725Z,3.00
2023-03-29T14:24:52.421Z,3.30
2023-03-29T14:44:06.063Z,2.70
2023-03-29T14:47:31.850Z,3.20
2023-03-29T15:35:38.837Z,3.60
2023-03-29T15:38:50.145Z,5.80
2023-03-29T15:42:03.614Z,3.80
2023-03-29T15:57:17.564Z,4.50
2023-03-29T16:10:53.538Z,5.80
2023-03-29T16:13:53.273Z,4.70
2023-03-29T16:17:30.723Z,4.40
2023-03-29T16:21:04.933Z,4.40
2023-03-29T16:23:32.920Z,4.40
2023-03-29T16:26:01.012Z,4.00
2023-03-29T16:28:28.913Z,4.80
2023-03-29T16:30:56.792Z,4.70
2023-03-29T16:33:24.861Z,6.60
2023-03-29T16:35:57.255Z,4.70
2023-03-29T16:38:26.082Z,4.70
2023-03-29T16:40:54.023Z,5.20
2023-03-29T16:43:21.887Z,6.20
2023-03-29T16:45:54.796Z,4.50
2023-03-29T16:48:23.978Z,6.80
2023-03-29T16:50:51.881Z,4.70
2023-03-29T16:53:21.620Z,6.80
2023-03-29T16:55:49.903Z,3.90
2023-03-29T16:58:18.132Z,5.60
2023-03-29T17:00:48.294Z,5.80
2023-03-29T17:03:17.021Z,5.30
2023-03-29T17:05:50.293Z,5.80
2023-03-29T17:08:23.216Z,7.80
2023-03-29T17:10:55.675Z,5.50
2023-03-29T17:13:24.141Z,9.90
2023-03-29T17:15:53.725Z,5.50
2023-03-29T17:18:23.357Z,5.40
2023-03-29T17:40:21.906Z,7.60
2023-03-29T17:43:02.320Z,4.80
2023-03-29T17:46:38.086Z,7.70
2023-03-29T17:50:34.116Z,4.80
2023-03-29T17:53:57.254Z,6.50
2023-03-29T17:57:38.985Z,7.70
2023-03-29T18:01:13.497Z,9.80
2023-03-29T18:04:52.565Z,11.80
2023-03-29T18:14:37.663Z,12.20
2023-03-29T18:17:51.691Z,13.20
2023-03-29T18:20:20.977Z,13.10
2023-03-29T18:22:49.411Z,12.00
2023-03-29T18:29:47.401Z,14.00
2023-03-29T18:44:48.513Z,13.10
2023-03-29T18:47:37.102Z,12.10
2023-03-29T18:50:30.473Z,10.60
2023-03-29T18:52:58.605Z,11.20
2023-03-29T18:55:27.641Z,13.10
2023-03-29T18:57:56.413Z,10.10
2023-03-29T19:00:24.845Z,35.50
2023-03-29T19:02:54.171Z,71.70
2023-03-29T19:05:23.269Z,16.00
2023-03-29T19:07:54.802Z,14.30
2023-03-29T19:10:26.330Z,16.40
2023-03-29T19:12:54.507Z,15.40
2023-03-29T19:15:22.783Z,17.70
2023-03-29T19:17:50.979Z,17.40
2023-03-29T19:21:52.959Z,15.30
2023-03-29T19:25:28.801Z,15.20
2023-03-29T19:27:57.708Z,18.10
2023-03-29T19:30:26.044Z,83.20
2023-03-29T19:32:57.588Z,18.20
2023-03-29T19:35:30.037Z,15.40
2023-03-29T19:37:58.032Z,15.70
2023-03-29T19:40:28.897Z,16.60
2023-03-29T19:42:57.014Z,17.20
2023-03-29T19:45:30.179Z,19.50
2023-03-29T19:48:24.686Z,17.90
2023-03-29T19:50:52.928Z,16.70
2023-03-29T19:53:25.655Z,18.90
2023-03-29T19:55:53.705Z,18.10
2023-03-29T20:00:04.054Z,20.70
2023-03-29T20:03:37.764Z,16.90
2023-03-29T20:06:59.470Z,19.30
2023-03-29T20:09:27.875Z,17.00
2023-03-29T20:11:55.858Z,17.60
2023-03-29T20:14:23.937Z,20.00
2023-03-29T20:16:54.227Z,19.20
2023-03-29T20:22:00.923Z,20.40
2023-03-29T20:25:50.960Z,20.00
2023-03-29T20:39:45.517Z,24.10
2023-03-29T20:53:44.655Z,24.40
2023-03-29T20:56:26.411Z,25.80
2023-03-29T21:00:12.338Z,25.30
2023-03-29T21:04:14.260Z,25.40
2023-03-29T21:18:20.819Z,26.40
2023-03-29T21:21:08.013Z,26.60
2023-03-29T21:25:24.119Z,26.20
2023-03-29T21:28:28.555Z,26.30
2023-03-29T21:32:11.470Z,28.40
2023-03-29T21:35:50.679Z,24.90
2023-03-29T21:39:55.936Z,25.90
2023-03-29T21:43:07.852Z,28.90
2023-03-29T21:47:08.622Z,28.90
2023-03-29T21:50:37.267Z,29.40
2023-03-29T21:54:04.237Z,28.20
2023-03-29T21:57:41.652Z,28.90
2023-03-29T22:01:15.227Z,32.70
2023-03-29T22:15:36.020Z,34.80
2023-03-29T22:18:14.793Z,29.30
2023-03-29T22:22:01.848Z,32.50
2023-03-29T22:25:31.911Z,32.50
2023-03-29T22:39:41.718Z,36.40
2023-03-29T22:42:27.137Z,35.00
2023-03-29T22:46:11.772Z,41.10
2023-03-29T22:49:44.725Z,38.90
2023-03-29T22:53:25.772Z,39.20
2023-03-29T22:57:08.481Z,33.70
2023-03-29T23:00:43.222Z,34.00
2023-03-29T23:04:44.818Z,33.30
2023-03-29T23:08:05.356Z,30.80
2023-03-29T23:22:22.138Z,28.80
2023-03-29T23:25:15.125Z,29.80
2023-03-29T23:28:54.912Z,28.10
2023-03-29T23:33:16.671Z,29.00
2023-03-29T23:36:56.525Z,27.20
2023-03-29T23:40:33.620Z,29.10
2023-03-29T23:44:11.519Z,27.50
2023-03-29T23:48:04.508Z,27.90
2023-03-29T23:51:28.458Z,27.90
